sensor_id;sensor_type;location;lat;lon;timestamp;pressure;altitude;pressure_sealevel;temperature;humidity
67517;BME280;68821;59.134;37.894;2023-06-26T00:02:11;100126.44;;;16.37;60.79
67517;BME280;68821;59.134;37.894;2023-06-26T00:04:37;100117.81;;;16.35;60.99
67517;BME280;68821;59.134;37.894;2023-06-26T00:07:04;100124.75;;;16.32;61.57
67517;BME280;68821;59.134;37.894;2023-06-26T00:09:31;100124.81;;;16.27;61.46
67517;BME280;68821;59.134;37.894;2023-06-26T00:12:01;100128.31;;;16.24;61.45
67517;BME280;68821;59.134;37.894;2023-06-26T00:14:27;100126.59;;;16.22;61.43
67517;BME280;68821;59.134;37.894;2023-06-26T00:16:54;100124.94;;;16.16;61.69
67517;BME280;68821;59.134;37.894;2023-06-26T00:19:20;100122.34;;;16.15;61.67
67517;BME280;68821;59.134;37.894;2023-06-26T00:21:47;100124.09;;;16.14;61.94
67517;BME280;68821;59.134;37.894;2023-06-26T00:24:14;100119.75;;;16.13;62.40
67517;BME280;68821;59.134;37.894;2023-06-26T00:26:41;100116.38;;;16.08;62.26
67517;BME280;68821;59.134;37.894;2023-06-26T00:29:07;100126.69;;;16.11;62.18
67517;BME280;68821;59.134;37.894;2023-06-26T00:31:33;100118.94;;;16.09;62.02
67517;BME280;68821;59.134;37.894;2023-06-26T00:34:01;100122.41;;;16.08;61.99
67517;BME280;68821;59.134;37.894;2023-06-26T00:36:28;100119.81;;;16.10;62.15
67517;BME280;68821;59.134;37.894;2023-06-26T00:38:54;100113.78;;;16.08;61.80
67517;BME280;68821;59.134;37.894;2023-06-26T00:41:20;100117.22;;;16.08;61.99
67517;BME280;68821;59.134;37.894;2023-06-26T00:43:46;100120.72;;;16.06;61.96
67517;BME280;68821;59.134;37.894;2023-06-26T00:46:14;100113.78;;;16.05;61.97
67517;BME280;68821;59.134;37.894;2023-06-26T00:48:42;100106.91;;;16.02;61.91
67517;BME280;68821;59.134;37.894;2023-06-26T00:51:09;100109.50;;;16.04;61.70
67517;BME280;68821;59.134;37.894;2023-06-26T00:53:35;100112.09;;;16.02;61.55
67517;BME280;68821;59.134;37.894;2023-06-26T00:56:02;100110.34;;;16.03;61.50
67517;BME280;68821;59.134;37.894;2023-06-26T00:58:29;100108.63;;;16.03;61.17
67517;BME280;68821;59.134;37.894;2023-06-26T01:00:55;100119.88;;;16.04;61.40
67517;BME280;68821;59.134;37.894;2023-06-26T01:03:23;100113.84;;;16.02;61.22
67517;BME280;68821;59.134;37.894;2023-06-26T01:05:52;100109.50;;;16.01;61.53
67517;BME280;68821;59.134;37.894;2023-06-26T01:08:19;100107.81;;;16.00;61.54
67517;BME280;68821;59.134;37.894;2023-06-26T01:10:47;100116.44;;;16.02;61.49
67517;BME280;68821;59.134;37.894;2023-06-26T01:13:13;100110.34;;;16.03;61.30
67517;BME280;68821;59.134;37.894;2023-06-26T01:15:40;100114.66;;;16.05;61.09
67517;BME280;68821;59.134;37.894;2023-06-26T01:18:07;100105.16;;;16.06;61.16
67517;BME280;68821;59.134;37.894;2023-06-26T01:20:36;100117.22;;;16.08;61.22
67517;BME280;68821;59.134;37.894;2023-06-26T01:25:56;100121.50;;;16.14;61.34
67517;BME280;68821;59.134;37.894;2023-06-26T01:28:27;100113.72;;;16.14;61.18
67517;BME280;68821;59.134;37.894;2023-06-26T01:30:54;100114.56;;;16.13;61.25
67517;BME280;68821;59.134;37.894;2023-06-26T01:33:21;100117.16;;;16.13;61.64
67517;BME280;68821;59.134;37.894;2023-06-26T01:35:47;100118.91;;;16.14;61.53
67517;BME280;68821;59.134;37.894;2023-06-26T01:38:21;100123.19;;;16.17;61.51
67517;BME280;68821;59.134;37.894;2023-06-26T01:40:50;100124.88;;;16.21;61.57
67517;BME280;68821;59.134;37.894;2023-06-26T01:44:27;100128.31;;;16.23;61.45
67517;BME280;68821;59.134;37.894;2023-06-26T01:46:36;100117.91;;;16.26;61.32
67517;BME280;68821;59.134;37.894;2023-06-26T01:57:20;100121.31;;;16.29;60.89
67517;BME280;68821;59.134;37.894;2023-06-26T01:59:50;100119.56;;;16.30;61.25
67517;BME280;68821;59.134;37.894;2023-06-26T02:02:17;100111.78;;;16.32;61.23
67517;BME280;68821;59.134;37.894;2023-06-26T02:04:43;100115.22;;;16.34;61.26
67517;BME280;68821;59.134;37.894;2023-06-26T02:07:09;100112.63;;;16.35;61.30
67517;BME280;68821;59.134;37.894;2023-06-26T02:09:35;100116.91;;;16.36;61.42
67517;BME280;68821;59.134;37.894;2023-06-26T02:12:02;100109.19;;;16.35;61.30
67517;BME280;68821;59.134;37.894;2023-06-26T02:14:28;100116.06;;;16.39;61.05
67517;BME280;68821;59.134;37.894;2023-06-26T02:16:54;100115.22;;;16.37;61.27
67517;BME280;68821;59.134;37.894;2023-06-26T02:19:20;100120.41;;;16.35;61.39
67517;BME280;68821;59.134;37.894;2023-06-26T02:21:48;100121.25;;;16.36;61.49
67517;BME280;68821;59.134;37.894;2023-06-26T02:24:15;100111.78;;;16.33;61.65
67517;BME280;68821;59.134;37.894;2023-06-26T02:26:41;100122.16;;;16.33;61.65
67517;BME280;68821;59.134;37.894;2023-06-26T02:29:08;100121.25;;;16.34;61.83
67517;BME280;68821;59.134;37.894;2023-06-26T02:31:34;100121.25;;;16.34;61.94
67517;BME280;68821;59.134;37.894;2023-06-26T02:34:01;100122.09;;;16.36;62.05
67517;BME280;68821;59.134;37.894;2023-06-26T02:36:27;100118.66;;;16.39;61.97
67517;BME280;68821;59.134;37.894;2023-06-26T02:38:53;100117.72;;;16.43;62.15
67517;BME280;68821;59.134;37.894;2023-06-26T02:41:19;100121.97;;;16.48;62.43
67517;BME280;68821;59.134;37.894;2023-06-26T02:43:46;100119.31;;;16.55;62.21
67517;BME280;68821;59.134;37.894;2023-06-26T02:46:12;100125.31;;;16.58;62.13
67517;BME280;68821;59.134;37.894;2023-06-26T02:48:38;100120.94;;;16.63;62.34
67517;BME280;68821;59.134;37.894;2023-06-26T02:51:05;100124.34;;;16.68;62.28
67517;BME280;68821;59.134;37.894;2023-06-26T02:53:31;100127.75;;;16.72;62.37
67517;BME280;68821;59.134;37.894;2023-06-26T02:55:58;100128.53;;;16.80;62.28
67517;BME280;68821;59.134;37.894;2023-06-26T02:58:24;100122.47;;;16.83;62.18
67517;BME280;68821;59.134;37.894;2023-06-26T03:00:50;100128.47;;;16.88;62.39
67517;BME280;68821;59.134;37.894;2023-06-26T03:03:17;100124.97;;;16.91;62.37
67517;BME280;68821;59.134;37.894;2023-06-26T03:05:44;100128.38;;;16.94;61.92
67517;BME280;68821;59.134;37.894;2023-06-26T03:08:10;100131.78;;;16.98;62.23
67517;BME280;68821;59.134;37.894;2023-06-26T03:10:36;100131.75;;;17.01;62.24
67517;BME280;68821;59.134;37.894;2023-06-26T03:13:02;100129.97;;;17.04;62.25
67517;BME280;68821;59.134;37.894;2023-06-26T03:15:29;100134.25;;;17.08;62.24
67517;BME280;68821;59.134;37.894;2023-06-26T03:17:55;100139.38;;;17.12;62.30
67517;BME280;68821;59.134;37.894;2023-06-26T03:20:21;100139.31;;;17.16;62.32
67517;BME280;68821;59.134;37.894;2023-06-26T03:22:47;100136.69;;;17.21;61.85
67517;BME280;68821;59.134;37.894;2023-06-26T03:25:14;100137.47;;;17.26;62.32
67517;BME280;68821;59.134;37.894;2023-06-26T03:27:40;100132.16;;;17.32;62.04
67517;BME280;68821;59.134;37.894;2023-06-26T03:30:07;100132.94;;;17.39;62.22
67517;BME280;68821;59.134;37.894;2023-06-26T03:32:33;100125.03;;;17.45;62.22
67517;BME280;68821;59.134;37.894;2023-06-26T03:35:00;100130.97;;;17.53;61.87
67517;BME280;68821;59.134;37.894;2023-06-26T03:37:29;100128.28;;;17.59;62.02
67517;BME280;68821;59.134;37.894;2023-06-26T03:39:56;100131.69;;;17.64;61.86
67517;BME280;68821;59.134;37.894;2023-06-26T03:42:25;100128.91;;;17.74;61.79
67517;BME280;68821;59.134;37.894;2023-06-26T03:44:52;100126.22;;;17.83;61.88
67517;BME280;68821;59.134;37.894;2023-06-26T03:47:18;100131.28;;;17.91;61.80
67517;BME280;68821;59.134;37.894;2023-06-26T03:49:44;100126.81;;;17.99;61.91
67517;BME280;68821;59.134;37.894;2023-06-26T03:52:10;100130.13;;;18.07;61.61
67517;BME280;68821;59.134;37.894;2023-06-26T03:54:37;100135.16;;;18.16;61.62
67517;BME280;68821;59.134;37.894;2023-06-26T03:57:03;100131.59;;;18.20;61.29
67517;BME280;68821;59.134;37.894;2023-06-26T03:59:29;100130.56;;;18.29;61.32
67517;BME280;68821;59.134;37.894;2023-06-26T04:01:56;100127.91;;;18.34;61.08
67517;BME280;68821;59.134;37.894;2023-06-26T04:04:22;100122.59;;;18.38;61.27
67517;BME280;68821;59.134;37.894;2023-06-26T04:06:48;100128.56;;;18.43;60.98
67517;BME280;68821;59.134;37.894;2023-06-26T04:09:15;100133.63;;;18.51;60.69
67517;BME280;68821;59.134;37.894;2023-06-26T04:11:41;100128.31;;;18.56;60.79
67517;BME280;68821;59.134;37.894;2023-06-26T04:14:07;100127.38;;;18.60;60.60
67517;BME280;68821;59.134;37.894;2023-06-26T04:16:33;100132.44;;;18.66;60.78
67517;BME280;68821;59.134;37.894;2023-06-26T04:18:59;100122.03;;;18.66;60.52
67517;BME280;68821;59.134;37.894;2023-06-26T04:21:26;100137.41;;;18.78;60.50
67517;BME280;68821;59.134;37.894;2023-06-26T04:23:53;100129.47;;;18.86;60.23
67517;BME280;68821;59.134;37.894;2023-06-26T04:26:19;100124.16;;;18.90;60.13
67517;BME280;68821;59.134;37.894;2023-06-26T04:28:45;100137.94;;;18.97;60.30
67517;BME280;68821;59.134;37.894;2023-06-26T04:31:11;100136.03;;;19.05;60.16
67517;BME280;68821;59.134;37.894;2023-06-26T04:33:38;100128.06;;;19.12;59.73
67517;BME280;68821;59.134;37.894;2023-06-26T04:36:05;100133.91;;;19.21;59.69
67517;BME280;68821;59.134;37.894;2023-06-26T04:38:32;100131.09;;;19.30;59.68
67517;BME280;68821;59.134;37.894;2023-06-26T04:40:59;100123.97;;;19.39;59.61
67517;BME280;68821;59.134;37.894;2023-06-26T04:43:26;100125.47;;;19.47;59.46
67517;BME280;68821;59.134;37.894;2023-06-26T04:45:52;100121.78;;;19.56;59.53
67517;BME280;68821;59.134;37.894;2023-06-26T04:48:18;100121.63;;;19.64;59.24
67517;BME280;68821;59.134;37.894;2023-06-26T04:50:45;100121.47;;;19.72;59.06
67517;BME280;68821;59.134;37.894;2023-06-26T04:53:23;100127.41;;;19.77;59.05
67517;BME280;68821;59.134;37.894;2023-06-26T04:55:56;100128.13;;;19.83;58.92
67517;BME280;68821;59.134;37.894;2023-06-26T04:58:23;100125.31;;;19.91;58.90
67517;BME280;68821;59.134;37.894;2023-06-26T05:00:49;100124.22;;;20.00;58.68
67517;BME280;68821;59.134;37.894;2023-06-26T05:03:17;100127.44;;;20.09;58.38
67517;BME280;68821;59.134;37.894;2023-06-26T05:05:43;100137.69;;;20.17;58.02
67517;BME280;68821;59.134;37.894;2023-06-26T05:08:32;100128.75;;;20.26;57.80
67517;BME280;68821;59.134;37.894;2023-06-26T05:10:58;100138.00;;;20.38;57.64
67517;BME280;68821;59.134;37.894;2023-06-26T05:13:25;100135.19;;;20.45;56.89
67517;BME280;68821;59.134;37.894;2023-06-26T05:15:52;100139.28;;;20.54;56.33
67517;BME280;68821;59.134;37.894;2023-06-26T05:18:19;100143.41;;;20.63;55.93
67517;BME280;68821;59.134;37.894;2023-06-26T05:20:45;100137.13;;;20.70;55.96
67517;BME280;68821;59.134;37.894;2023-06-26T05:23:12;100140.38;;;20.78;55.56
67517;BME280;68821;59.134;37.894;2023-06-26T05:25:39;100137.56;;;20.86;55.02
67517;BME280;68821;59.134;37.894;2023-06-26T05:28:06;100126.09;;;20.90;54.90
67517;BME280;68821;59.134;37.894;2023-06-26T05:30:34;100126.78;;;20.97;54.63
67517;BME280;68821;59.134;37.894;2023-06-26T05:33:01;100130.06;;;21.03;54.81
67517;BME280;68821;59.134;37.894;2023-06-26T05:35:29;100135.06;;;21.11;54.46
67517;BME280;68821;59.134;37.894;2023-06-26T05:37:57;100131.41;;;21.17;54.30
67517;BME280;68821;59.134;37.894;2023-06-26T05:40:24;100128.47;;;21.26;54.02
67517;BME280;68821;59.134;37.894;2023-06-26T05:42:50;100134.34;;;21.34;54.16
67517;BME280;68821;59.134;37.894;2023-06-26T05:45:17;100134.97;;;21.41;53.53
67517;BME280;68821;59.134;37.894;2023-06-26T05:47:43;100142.75;;;21.45;53.24
67517;BME280;68821;59.134;37.894;2023-06-26T05:50:12;100135.63;;;21.49;53.21
67517;BME280;68821;59.134;37.894;2023-06-26T05:52:39;100142.38;;;21.56;53.26
67517;BME280;68821;59.134;37.894;2023-06-26T05:55:06;100137.81;;;21.63;52.74
67517;BME280;68821;59.134;37.894;2023-06-26T05:57:32;100140.19;;;21.70;52.88
67517;BME280;68821;59.134;37.894;2023-06-26T06:00:01;100139.13;;;21.76;52.62
67517;BME280;68821;59.134;37.894;2023-06-26T06:02:29;100141.59;;;21.81;52.31
67517;BME280;68821;59.134;37.894;2023-06-26T06:04:55;100144.88;;;21.86;52.52
67517;BME280;68821;59.134;37.894;2023-06-26T06:07:21;100138.72;;;21.88;52.41
67517;BME280;68821;59.134;37.894;2023-06-26T06:09:48;100140.97;;;21.99;52.22
67517;BME280;68821;59.134;37.894;2023-06-26T06:12:14;100139.81;;;22.06;52.34
67517;BME280;68821;59.134;37.894;2023-06-26T06:14:40;100143.13;;;22.13;51.90
67517;BME280;68821;59.134;37.894;2023-06-26T06:17:06;100139.47;;;22.17;51.62
67517;BME280;68821;59.134;37.894;2023-06-26T06:19:32;100147.97;;;22.25;51.96
67517;BME280;68821;59.134;37.894;2023-06-26T06:21:59;100138.97;;;22.33;51.42
67517;BME280;68821;59.134;37.894;2023-06-26T06:24:25;100136.13;;;22.39;51.38
67517;BME280;68821;59.134;37.894;2023-06-26T06:26:51;100135.09;;;22.43;51.47
67517;BME280;68821;59.134;37.894;2023-06-26T06:29:17;100134.22;;;22.44;51.09
67517;BME280;68821;59.134;37.894;2023-06-26T06:31:45;100139.22;;;22.50;50.77
67517;BME280;68821;59.134;37.894;2023-06-26T06:34:12;100141.63;;;22.56;50.97
67517;BME280;68821;59.134;37.894;2023-06-26T06:36:39;100144.06;;;22.61;50.86
67517;BME280;68821;59.134;37.894;2023-06-26T06:39:05;100145.59;;;22.66;50.92
67517;BME280;68821;59.134;37.894;2023-06-26T06:41:31;100137.53;;;22.73;50.76
67517;BME280;68821;59.134;37.894;2023-06-26T06:43:58;100139.81;;;22.80;50.62
67517;BME280;68821;59.134;37.894;2023-06-26T06:46:24;100141.38;;;22.86;50.47
67517;BME280;68821;59.134;37.894;2023-06-26T06:48:53;100140.25;;;22.93;50.14
67517;BME280;68821;59.134;37.894;2023-06-26T06:51:19;100145.25;;;22.99;49.93
67517;BME280;68821;59.134;37.894;2023-06-26T06:53:45;100138.94;;;23.05;49.57
67517;BME280;68821;59.134;37.894;2023-06-26T06:56:12;100141.41;;;23.09;49.71
67517;BME280;68821;59.134;37.894;2023-06-26T06:58:38;100140.38;;;23.14;49.29
67517;BME280;68821;59.134;37.894;2023-06-26T07:01:06;100140.19;;;23.18;49.20
67517;BME280;68821;59.134;37.894;2023-06-26T07:03:33;100131.28;;;23.22;48.59
67517;BME280;68821;59.134;37.894;2023-06-26T07:05:59;100137.88;;;23.33;48.50
67517;BME280;68821;59.134;37.894;2023-06-26T07:08:25;100139.41;;;23.38;47.83
67517;BME280;68821;59.134;37.894;2023-06-26T07:10:51;100125.25;;;23.42;47.62
67517;BME280;68821;59.134;37.894;2023-06-26T07:13:18;100132.88;;;23.48;47.34
67517;BME280;68821;59.134;37.894;2023-06-26T07:15:45;100137.88;;;23.55;47.16
67517;BME280;68821;59.134;37.894;2023-06-26T07:18:11;100134.25;;;23.57;46.62
67517;BME280;68821;59.134;37.894;2023-06-26T07:20:38;100131.44;;;23.62;46.63
67517;BME280;68821;59.134;37.894;2023-06-26T07:23:04;100131.31;;;23.65;46.35
67517;BME280;68821;59.134;37.894;2023-06-26T07:25:30;100129.28;;;23.72;46.43
67517;BME280;68821;59.134;37.894;2023-06-26T07:27:56;100132.41;;;23.81;46.08
67517;BME280;68821;59.134;37.894;2023-06-26T07:30:23;100136.47;;;23.88;45.75
67517;BME280;68821;59.134;37.894;2023-06-26T07:32:50;100138.91;;;23.93;45.56
67517;BME280;68821;59.134;37.894;2023-06-26T07:35:16;100130.06;;;23.96;45.47
67517;BME280;68821;59.134;37.894;2023-06-26T07:37:43;100129.91;;;23.99;45.01
67517;BME280;68821;59.134;37.894;2023-06-26T07:40:10;100132.50;;;24.00;44.53
67517;BME280;68821;59.134;37.894;2023-06-26T07:42:36;100128.81;;;24.04;44.29
67517;BME280;68821;59.134;37.894;2023-06-26T07:45:03;100132.06;;;24.09;44.19
67517;BME280;68821;59.134;37.894;2023-06-26T07:47:37;100136.00;;;24.20;43.97
67517;BME280;68821;59.134;37.894;2023-06-26T07:50:04;100125.13;;;24.29;43.91
67517;BME280;68821;59.134;37.894;2023-06-26T07:52:30;100126.34;;;24.41;43.39
67517;BME280;68821;59.134;37.894;2023-06-26T07:54:57;100138.03;;;24.54;42.90
67517;BME280;68821;59.134;37.894;2023-06-26T07:57:23;100131.38;;;24.66;42.54
67517;BME280;68821;59.134;37.894;2023-06-26T07:59:50;100139.00;;;24.72;42.28
67517;BME280;68821;59.134;37.894;2023-06-26T08:02:16;100131.72;;;24.77;42.69
67517;BME280;68821;59.134;37.894;2023-06-26T08:04:43;100123.66;;;24.82;42.28
67517;BME280;68821;59.134;37.894;2023-06-26T08:07:10;100122.50;;;24.87;42.17
67517;BME280;68821;59.134;37.894;2023-06-26T08:09:36;100120.44;;;24.94;41.36
67517;BME280;68821;59.134;37.894;2023-06-26T08:12:03;100123.69;;;24.99;41.03
67517;BME280;68821;59.134;37.894;2023-06-26T08:14:29;100118.66;;;24.95;41.14
67517;BME280;68821;59.134;37.894;2023-06-26T08:16:57;100125.44;;;25.00;41.41
67517;BME280;68821;59.134;37.894;2023-06-26T08:19:25;100114.44;;;25.09;41.41
67517;BME280;68821;59.134;37.894;2023-06-26T08:21:51;100120.97;;;25.20;40.48
67517;BME280;68821;59.134;37.894;2023-06-26T08:24:18;100112.75;;;25.27;39.98
67517;BME280;68821;59.134;37.894;2023-06-26T08:26:47;100114.31;;;25.32;40.43
67517;BME280;68821;59.134;37.894;2023-06-26T08:29:14;100108.50;;;25.42;40.38
67517;BME280;68821;59.134;37.894;2023-06-26T08:31:42;100114.19;;;25.52;40.29
67517;BME280;68821;59.134;37.894;2023-06-26T08:34:09;100114.66;;;25.60;39.46
67517;BME280;68821;59.134;37.894;2023-06-26T08:36:35;100113.41;;;25.67;39.85
67517;BME280;68821;59.134;37.894;2023-06-26T08:39:02;100112.00;;;25.78;39.90
67517;BME280;68821;59.134;37.894;2023-06-26T08:41:31;100109.00;;;25.85;39.28
67517;BME280;68821;59.134;37.894;2023-06-26T08:43:57;100104.94;;;25.97;39.58
67517;BME280;68821;59.134;37.894;2023-06-26T08:46:23;100104.34;;;26.08;38.48
67517;BME280;68821;59.134;37.894;2023-06-26T08:48:56;100097.94;;;26.14;39.04
67517;BME280;68821;59.134;37.894;2023-06-26T08:51:27;100102.75;;;26.05;38.91
67517;BME280;68821;59.134;37.894;2023-06-26T08:53:58;100099.22;;;25.87;38.97
67517;BME280;68821;59.134;37.894;2023-06-26T08:56:32;100102.56;;;25.74;39.11
67517;BME280;68821;59.134;37.894;2023-06-26T08:58:58;100099.41;;;25.84;39.37
67517;BME280;68821;59.134;37.894;2023-06-26T09:01:25;100095.69;;;26.06;38.36
67517;BME280;68821;59.134;37.894;2023-06-26T09:03:52;100098.91;;;26.28;38.29
67517;BME280;68821;59.134;37.894;2023-06-26T09:06:18;100093.41;;;26.49;38.72
67517;BME280;68821;59.134;37.894;2023-06-26T09:08:44;100093.47;;;26.65;37.96
67517;BME280;68821;59.134;37.894;2023-06-26T09:11:10;100097.13;;;26.78;38.34
67517;BME280;68821;59.134;37.894;2023-06-26T09:13:37;100093.38;;;26.82;37.96
67517;BME280;68821;59.134;37.894;2023-06-26T09:16:07;100094.31;;;26.81;37.22
67517;BME280;68821;59.134;37.894;2023-06-26T09:18:34;100094.47;;;26.78;36.59
67517;BME280;68821;59.134;37.894;2023-06-26T09:21:07;100096.34;;;26.76;36.15
67517;BME280;68821;59.134;37.894;2023-06-26T09:23:34;100091.44;;;26.86;36.62
67517;BME280;68821;59.134;37.894;2023-06-26T09:26:05;100097.91;;;26.96;36.37
67517;BME280;68821;59.134;37.894;2023-06-26T09:28:32;100085.03;;;26.90;36.40
67517;BME280;68821;59.134;37.894;2023-06-26T09:31:07;100081.63;;;26.88;36.08
67517;BME280;68821;59.134;37.894;2023-06-26T09:33:35;100084.63;;;26.98;36.18
67517;BME280;68821;59.134;37.894;2023-06-26T09:36:17;100081.31;;;26.94;35.95
67517;BME280;68821;59.134;37.894;2023-06-26T09:38:44;100092.03;;;26.75;36.25
67517;BME280;68821;59.134;37.894;2023-06-26T09:41:11;100088.06;;;26.50;35.93
67517;BME280;68821;59.134;37.894;2023-06-26T09:43:47;100087.00;;;26.37;36.33
67517;BME280;68821;59.134;37.894;2023-06-26T09:46:25;100086.34;;;26.49;36.38
67517;BME280;68821;59.134;37.894;2023-06-26T09:49:06;100080.09;;;26.84;35.94
67517;BME280;68821;59.134;37.894;2023-06-26T09:51:33;100076.34;;;27.20;35.33
67517;BME280;68821;59.134;37.894;2023-06-26T09:54:01;100078.16;;;27.49;34.88
67517;BME280;68821;59.134;37.894;2023-06-26T09:56:29;100060.97;;;27.73;34.40
67517;BME280;68821;59.134;37.894;2023-06-26T09:58:57;100066.31;;;28.01;34.11
67517;BME280;68821;59.134;37.894;2023-06-26T10:01:24;100070.97;;;28.26;33.68
67517;BME280;68821;59.134;37.894;2023-06-26T10:03:51;100081.91;;;28.49;32.95
67517;BME280;68821;59.134;37.894;2023-06-26T10:06:20;100073.69;;;28.68;32.99
67517;BME280;68821;59.134;37.894;2023-06-26T10:08:48;100073.25;;;28.88;32.69
67517;BME280;68821;59.134;37.894;2023-06-26T10:11:19;100076.25;;;29.11;32.50
67517;BME280;68821;59.134;37.894;2023-06-26T10:13:50;100071.22;;;29.34;32.36
67517;BME280;68821;59.134;37.894;2023-06-26T10:16:23;100071.28;;;29.59;31.63
67517;BME280;68821;59.134;37.894;2023-06-26T10:18:53;100071.44;;;29.83;31.83
67517;BME280;68821;59.134;37.894;2023-06-26T10:21:22;100068.34;;;30.02;31.03
67517;BME280;68821;59.134;37.894;2023-06-26T10:23:51;100067.63;;;30.13;30.60
67517;BME280;68821;59.134;37.894;2023-06-26T10:26:20;100067.31;;;30.18;30.38
67517;BME280;68821;59.134;37.894;2023-06-26T10:28:49;100064.97;;;30.26;31.07
67517;BME280;68821;59.134;37.894;2023-06-26T10:31:21;100052.25;;;30.44;30.97
67517;BME280;68821;59.134;37.894;2023-06-26T10:33:49;100059.09;;;30.59;30.04
67517;BME280;68821;59.134;37.894;2023-06-26T10:36:18;100061.59;;;30.74;30.59
67517;BME280;68821;59.134;37.894;2023-06-26T10:38:52;100057.09;;;30.87;29.56
67517;BME280;68821;59.134;37.894;2023-06-26T10:41:21;100059.19;;;30.95;29.73
67517;BME280;68821;59.134;37.894;2023-06-26T10:43:50;100054.41;;;31.00;29.69
67517;BME280;68821;59.134;37.894;2023-06-26T10:46:18;100058.28;;;30.83;29.59
67517;BME280;68821;59.134;37.894;2023-06-26T10:49:03;100054.06;;;30.67;29.44
67517;BME280;68821;59.134;37.894;2023-06-26T10:51:31;100056.66;;;30.80;29.88
67517;BME280;68821;59.134;37.894;2023-06-26T10:53:57;100054.16;;;31.03;29.96
67517;BME280;68821;59.134;37.894;2023-06-26T10:56:47;100049.69;;;31.27;29.63
67517;BME280;68821;59.134;37.894;2023-06-26T10:59:21;100043.59;;;31.38;28.92
67517;BME280;68821;59.134;37.894;2023-06-26T11:02:03;100049.56;;;31.53;28.67
67517;BME280;68821;59.134;37.894;2023-06-26T11:04:40;100052.31;;;32.10;28.18
67517;BME280;68821;59.134;37.894;2023-06-26T11:07:23;100038.28;;;33.61;26.75
67517;BME280;68821;59.134;37.894;2023-06-26T11:10:09;100042.00;;;35.59;24.94
67517;BME280;68821;59.134;37.894;2023-06-26T11:12:40;100046.72;;;37.50;23.64
67517;BME280;68821;59.134;37.894;2023-06-26T11:15:12;100031.97;;;39.32;21.85
67517;BME280;68821;59.134;37.894;2023-06-26T11:17:40;100031.16;;;40.98;21.12
67517;BME280;68821;59.134;37.894;2023-06-26T11:20:11;100047.41;;;42.55;20.16
67517;BME280;68821;59.134;37.894;2023-06-26T11:22:40;100035.94;;;44.02;19.23
67517;BME280;68821;59.134;37.894;2023-06-26T11:25:07;100038.56;;;45.52;18.06
67517;BME280;68821;59.134;37.894;2023-06-26T11:27:41;100034.72;;;47.08;17.26
67517;BME280;68821;59.134;37.894;2023-06-26T11:30:22;100031.97;;;48.44;15.88
67517;BME280;68821;59.134;37.894;2023-06-26T11:32:48;100032.84;;;49.69;14.89
67517;BME280;68821;59.134;37.894;2023-06-26T11:35:25;100037.38;;;50.73;14.57
67517;BME280;68821;59.134;37.894;2023-06-26T11:37:56;100025.78;;;51.56;13.82
67517;BME280;68821;59.134;37.894;2023-06-26T11:40:26;100025.66;;;52.12;12.43
67517;BME280;68821;59.134;37.894;2023-06-26T11:42:58;100026.38;;;52.52;12.06
67517;BME280;68821;59.134;37.894;2023-06-26T11:45:28;100020.75;;;53.01;12.21
67517;BME280;68821;59.134;37.894;2023-06-26T11:47:58;100019.97;;;53.48;12.01
67517;BME280;68821;59.134;37.894;2023-06-26T11:50:25;100017.25;;;53.63;11.46
67517;BME280;68821;59.134;37.894;2023-06-26T11:52:58;100006.38;;;53.84;11.48
67517;BME280;68821;59.134;37.894;2023-06-26T11:55:25;100010.13;;;53.62;11.11
67517;BME280;68821;59.134;37.894;2023-06-26T11:57:56;100004.22;;;53.43;11.31
67517;BME280;68821;59.134;37.894;2023-06-26T12:00:23;100007.59;;;52.70;11.23
67517;BME280;68821;59.134;37.894;2023-06-26T12:02:49;100010.13;;;50.50;11.74
67517;BME280;68821;59.134;37.894;2023-06-26T12:05:17;99996.41;;;47.72;13.27
67517;BME280;68821;59.134;37.894;2023-06-26T12:07:46;99999.19;;;47.47;13.56
67517;BME280;68821;59.134;37.894;2023-06-26T12:10:14;99988.75;;;48.60;13.06
67517;BME280;68821;59.134;37.894;2023-06-26T12:12:41;99990.59;;;48.47;12.82
67517;BME280;68821;59.134;37.894;2023-06-26T12:15:10;99993.59;;;49.23;12.45
67517;BME280;68821;59.134;37.894;2023-06-26T12:17:38;99992.22;;;50.42;11.92
67517;BME280;68821;59.134;37.894;2023-06-26T12:20:18;99976.31;;;51.46;11.81
67517;BME280;68821;59.134;37.894;2023-06-26T12:22:48;99979.53;;;52.09;11.79
67517;BME280;68821;59.134;37.894;2023-06-26T12:25:15;99987.53;;;52.70;10.99
67517;BME280;68821;59.134;37.894;2023-06-26T12:27:47;99979.69;;;53.26;10.73
67517;BME280;68821;59.134;37.894;2023-06-26T12:30:13;99985.72;;;53.81;10.19
67517;BME280;68821;59.134;37.894;2023-06-26T12:32:39;99989.38;;;54.07;9.83
67517;BME280;68821;59.134;37.894;2023-06-26T12:35:06;99981.16;;;54.18;9.75
67517;BME280;68821;59.134;37.894;2023-06-26T12:37:38;99982.28;;;54.53;8.97
67517;BME280;68821;59.134;37.894;2023-06-26T12:40:20;99981.16;;;54.84;9.75
67517;BME280;68821;59.134;37.894;2023-06-26T12:42:49;99976.19;;;55.02;9.27
67517;BME280;68821;59.134;37.894;2023-06-26T12:45:16;99968.72;;;54.97;9.23
67517;BME280;68821;59.134;37.894;2023-06-26T12:47:42;99973.44;;;55.12;9.17
67517;BME280;68821;59.134;37.894;2023-06-26T12:50:09;99973.38;;;55.22;9.00
67517;BME280;68821;59.134;37.894;2023-06-26T12:52:35;99965.13;;;55.17;9.42
67517;BME280;68821;59.134;37.894;2023-06-26T12:55:01;99970.06;;;55.25;9.39
67517;BME280;68821;59.134;37.894;2023-06-26T12:57:27;99959.56;;;55.33;9.11